Time;durP1;ratioP1;P1;durP2;ratioP2;P2;SDS_P1;SDS_P2;PMS_P1;PMS_P2;Temp;Humidity;BMP_temperature;BMP_pressure;BME280_temperature;BME280_humidity;BME280_pressure;Samples;Min_cycle;Max_cycle;Signal;HPM_P1;HPM_P2
2023/06/26 00:00:51;;;;;;;6.00;3.67;;;;;;;;;;6216819;28;20050;-75
2023/06/26 00:03:52;;;;;;;5.32;3.33;;;;;;;;;;6218939;28;20054;-75
2023/06/26 00:06:54;;;;;;;5.53;3.47;;;;;;;;;;6217392;28;20417;-76
2023/06/26 00:09:56;;;;;;;8.38;3.85;;;;;;;;;;6217904;28;20064;-76
2023/06/26 00:12:59;;;;;;;5.35;3.35;;;;;;;;;;6219008;28;20282;-75
2023/06/26 00:16:03;;;;;;;;;;;;;;;;;;6216426;28;20093;-76
2023/06/26 00:19:04;;;;;;;;;;;;;;;;;;6219123;28;20206;-75
2023/06/26 00:22:06;;;;;;;6.65;3.58;;;;;;;;;;6217682;28;20353;-75
2023/06/26 00:25:08;;;;;;;4.68;3.25;;;;;;;;;;6218198;28;20064;-75
2023/06/26 00:28:11;;;;;;;5.43;3.80;;;;;;;;;;6215784;28;20069;-75
2023/06/26 00:31:12;;;;;;;;;;;;;;;;;;6218893;28;20053;-75
2023/06/26 00:34:14;;;;;;;5.07;3.17;;;;;;;;;;6218986;28;19917;-76
2023/06/26 00:37:16;;;;;;;5.95;3.35;;;;;;;;;;6217625;28;20066;-76
2023/06/26 00:40:18;;;;;;;6.65;4.00;;;;;;;;;;6216653;28;20242;-75
2023/06/26 00:43:21;;;;;;;5.78;3.90;;;;;;;;;;6214059;28;20056;-75
2023/06/26 00:46:24;;;;;;;6.05;3.65;;;;;;;;;;6218000;28;20065;-75
2023/06/26 00:49:26;;;;;;;5.03;3.20;;;;;;;;;;6214596;28;20338;-75
2023/06/26 00:52:28;;;;;;;5.35;3.53;;;;;;;;;;6223381;28;20219;-75
2023/06/26 00:55:30;;;;;;;6.18;3.78;;;;;;;;;;6216839;28;20123;-75
2023/06/26 00:58:33;;;;;;;7.38;3.55;;;;;;;;;;6215938;28;20053;-75
2023/06/26 01:01:35;;;;;;;5.88;3.40;;;;;;;;;;6214561;28;20246;-76
2023/06/26 01:04:37;;;;;;;7.60;3.67;;;;;;;;;;6217323;28;20105;-75
2023/06/26 01:07:39;;;;;;;4.90;3.30;;;;;;;;;;6219864;28;20073;-75
2023/06/26 01:10:40;;;;;;;4.60;3.28;;;;;;;;;;6215027;28;20283;-75
2023/06/26 01:13:44;;;;;;;7.03;3.50;;;;;;;;;;6222835;28;20053;-75
2023/06/26 01:16:47;;;;;;;5.50;3.50;;;;;;;;;;6217959;28;20082;-75
2023/06/26 01:19:50;;;;;;;4.33;3.30;;;;;;;;;;6216782;28;20054;-75
2023/06/26 01:22:56;;;;;;;;;;;;;;;;;;6218481;28;20058;-76
2023/06/26 01:26:14;;;;;;;6.50;3.85;;;;;;;;;;6215443;28;19921;-76
2023/06/26 01:29:18;;;;;;;4.47;3.58;;;;;;;;;;6215782;28;20109;-75
2023/06/26 01:32:19;;;;;;;;;;;;;;;;;;6216747;28;20295;-76
2023/06/26 01:35:21;;;;;;;4.50;3.30;;;;;;;;;;6215181;28;19921;-75
2023/06/26 01:38:23;;;;;;;4.43;3.42;;;;;;;;;;6215509;28;20105;-75
2023/06/26 01:41:27;;;;;;;4.53;3.07;;;;;;;;;;6218389;28;20234;-76
2023/06/26 01:44:30;;;;;;;7.28;3.88;;;;;;;;;;6221572;28;20882;-74
2023/06/26 01:47:32;;;;;;;5.55;3.33;;;;;;;;;;6215781;28;20203;-75
2023/06/26 01:50:35;;;;;;;6.67;3.53;;;;;;;;;;6214376;28;20053;-75
2023/06/26 01:53:37;;;;;;;;;;;;;;;;;;6217498;28;20111;-75
2023/06/26 01:56:41;;;;;;;5.68;3.58;;;;;;;;;;6215307;28;19925;-75
2023/06/26 01:59:43;;;;;;;6.25;3.60;;;;;;;;;;6215883;28;20366;-76
2023/06/26 02:02:44;;;;;;;6.15;3.70;;;;;;;;;;6218729;28;20080;-76
2023/06/26 02:05:46;;;;;;;4.55;3.53;;;;;;;;;;6221728;28;20215;-75
2023/06/26 02:08:48;;;;;;;6.38;3.33;;;;;;;;;;6221555;28;20057;-75
2023/06/26 02:11:51;;;;;;;4.93;3.25;;;;;;;;;;6222398;28;20050;-75
2023/06/26 02:14:53;;;;;;;5.22;3.10;;;;;;;;;;6221939;28;20054;-75
2023/06/26 02:17:54;;;;;;;5.05;3.53;;;;;;;;;;6210171;28;20054;-75
2023/06/26 02:20:56;;;;;;;4.40;3.20;;;;;;;;;;6213319;28;20215;-75
2023/06/26 02:23:57;;;;;;;6.95;3.20;;;;;;;;;;6222084;28;20124;-75
2023/06/26 02:27:01;;;;;;;4.05;3.30;;;;;;;;;;6219195;28;20057;-75
2023/06/26 02:30:02;;;;;;;5.60;3.30;;;;;;;;;;6216142;28;20057;-75
2023/06/26 02:33:04;;;;;;;5.72;3.65;;;;;;;;;;6219557;28;20058;-75
2023/06/26 02:36:06;;;;;;;5.30;3.30;;;;;;;;;;6220409;28;20053;-76
2023/06/26 02:39:08;;;;;;;4.78;3.60;;;;;;;;;;6220403;28;20057;-76
2023/06/26 02:42:11;;;;;;;4.35;3.38;;;;;;;;;;6221920;28;20116;-75
2023/06/26 02:45:12;;;;;;;7.65;3.40;;;;;;;;;;6220967;28;20539;-75
2023/06/26 02:48:14;;;;;;;6.80;3.50;;;;;;;;;;6219259;28;20230;-75
2023/06/26 02:51:16;;;;;;;4.72;4.00;;;;;;;;;;6214790;28;20057;-76
2023/06/26 02:54:18;;;;;;;9.75;4.68;;;;;;;;;;6218584;28;20244;-75
2023/06/26 02:57:21;;;;;;;5.53;3.70;;;;;;;;;;6216700;28;20053;-75
2023/06/26 03:00:22;;;;;;;10.77;4.65;;;;;;;;;;6219089;28;20069;-75
2023/06/26 03:03:24;;;;;;;8.98;6.15;;;;;;;;;;6218986;28;20058;-75
2023/06/26 03:06:26;;;;;;;11.85;8.18;;;;;;;;;;6218486;28;20046;-76
2023/06/26 03:09:27;;;;;;;15.52;9.77;;;;;;;;;;6220746;28;20050;-75
2023/06/26 03:12:30;;;;;;;16.15;10.55;;;;;;;;;;6221558;28;20057;-75
2023/06/26 03:15:32;;;;;;;22.50;10.63;;;;;;;;;;6219498;28;20334;-76
2023/06/26 03:18:33;;;;;;;15.05;10.18;;;;;;;;;;6222141;28;20061;-76
2023/06/26 03:21:35;;;;;;;16.55;9.30;;;;;;;;;;6196368;28;20057;-73
2023/06/26 03:24:37;;;;;;;19.45;9.60;;;;;;;;;;6208541;28;20042;-74
2023/06/26 03:27:40;;;;;;;12.70;7.78;;;;;;;;;;6217332;28;20050;-75
2023/06/26 03:30:42;;;;;;;13.85;8.02;;;;;;;;;;6217814;28;20342;-74
2023/06/26 03:33:43;;;;;;;16.48;6.88;;;;;;;;;;6218501;28;20047;-78
2023/06/26 03:36:45;;;;;;;12.25;6.65;;;;;;;;;;6218195;28;20279;-74
2023/06/26 03:39:47;;;;;;;12.32;6.70;;;;;;;;;;6218777;28;20057;-74
2023/06/26 03:42:50;;;;;;;11.43;6.22;;;;;;;;;;6204190;28;20469;-75
2023/06/26 03:45:51;;;;;;;13.20;5.80;;;;;;;;;;6217219;28;20057;-75
2023/06/26 03:48:53;;;;;;;8.63;5.35;;;;;;;;;;6217005;28;20038;-75
2023/06/26 03:51:55;;;;;;;8.25;4.40;;;;;;;;;;6218018;28;20350;-75
2023/06/26 03:54:56;;;;;;;10.35;4.72;;;;;;;;;;6217647;28;20685;-75
2023/06/26 03:57:59;;;;;;;10.38;4.60;;;;;;;;;;6221791;28;20124;-74
2023/06/26 04:01:01;;;;;;;15.57;4.60;;;;;;;;;;6217970;28;20247;-75
2023/06/26 04:04:03;;;;;;;15.77;4.78;;;;;;;;;;6218293;28;20104;-74
2023/06/26 04:07:05;;;;;;;8.57;4.68;;;;;;;;;;6215884;28;20070;-75
2023/06/26 04:10:08;;;;;;;9.48;3.92;;;;;;;;;;6216697;28;20590;-74
2023/06/26 04:13:11;;;;;;;8.52;4.50;;;;;;;;;;6217423;28;20226;-74
2023/06/26 04:16:13;;;;;;;;;;;;;;;;;;6217431;28;20050;-74
2023/06/26 04:19:15;;;;;;;4.90;3.67;;;;;;;;;;6216893;28;20203;-74
2023/06/26 04:22:16;;;;;;;9.73;3.78;;;;;;;;;;6217720;28;20062;-78
2023/06/26 04:25:18;;;;;;;8.80;4.35;;;;;;;;;;6219631;28;20352;-75
2023/06/26 04:28:21;;;;;;;10.15;4.35;;;;;;;;;;6215915;28;20058;-75
2023/06/26 04:31:23;;;;;;;14.23;4.63;;;;;;;;;;6215982;28;20345;-76
2023/06/26 04:34:25;;;;;;;9.68;3.75;;;;;;;;;;6217579;28;20065;-76
2023/06/26 04:37:27;;;;;;;5.88;3.60;;;;;;;;;;6217371;28;20061;-77
2023/06/26 04:40:28;;;;;;;102.70;9.30;;;;;;;;;;6217562;28;20054;-76
2023/06/26 04:43:31;;;;;;;6.70;3.78;;;;;;;;;;6217213;28;20077;-79
2023/06/26 04:46:33;;;;;;;5.32;3.55;;;;;;;;;;6218370;28;20261;-77
2023/06/26 04:49:35;;;;;;;10.25;4.47;;;;;;;;;;6215671;28;20222;-77
2023/06/26 04:52:36;;;;;;;6.07;4.35;;;;;;;;;;6218857;28;20214;-75
2023/06/26 04:55:38;;;;;;;8.10;4.10;;;;;;;;;;6217379;28;20061;-74
2023/06/26 04:58:41;;;;;;;6.68;3.40;;;;;;;;;;6215180;28;20092;-78
2023/06/26 05:01:47;;;;;;;6.90;4.15;;;;;;;;;;6217215;28;20058;-75
2023/06/26 05:04:49;;;;;;;18.17;7.65;;;;;;;;;;6216723;28;20066;-75
2023/06/26 05:07:53;;;;;;;12.07;4.53;;;;;;;;;;6216121;28;20246;-74
2023/06/26 05:10:57;;;;;;;7.57;4.22;;;;;;;;;;6217092;28;20061;-75
2023/06/26 05:14:00;;;;;;;10.82;4.28;;;;;;;;;;6219614;28;20057;-75
2023/06/26 05:17:02;;;;;;;12.00;4.07;;;;;;;;;;6214782;28;20104;-74
2023/06/26 05:20:05;;;;;;;9.55;3.83;;;;;;;;;;6217366;28;20294;-75
2023/06/26 05:23:07;;;;;;;10.82;4.82;;;;;;;;;;6217284;28;20282;-75
2023/06/26 05:26:09;;;;;;;5.45;3.75;;;;;;;;;;6214781;28;20361;-74
2023/06/26 05:29:12;;;;;;;5.10;3.58;;;;;;;;;;6212816;28;20054;-74
2023/06/26 05:32:17;;;;;;;5.40;3.42;;;;;;;;;;6220582;28;20057;-74
2023/06/26 05:35:19;;;;;;;5.82;3.78;;;;;;;;;;6214437;28;20084;-75
2023/06/26 05:38:21;;;;;;;8.05;3.92;;;;;;;;;;6215547;28;20095;-74
2023/06/26 05:41:24;;;;;;;5.93;3.70;;;;;;;;;;6217222;28;20061;-75
2023/06/26 05:44:27;;;;;;;6.87;4.00;;;;;;;;;;6216615;28;20046;-75
2023/06/26 05:47:28;;;;;;;5.38;3.63;;;;;;;;;;6213795;28;20069;-75
2023/06/26 05:50:31;;;;;;;9.00;4.25;;;;;;;;;;6218555;28;20061;-74
2023/06/26 05:53:33;;;;;;;6.60;3.65;;;;;;;;;;6217635;28;20038;-76
2023/06/26 05:56:35;;;;;;;7.72;3.63;;;;;;;;;;6217279;28;20042;-74
2023/06/26 05:59:40;;;;;;;6.30;4.03;;;;;;;;;;6215488;28;20046;-74
2023/06/26 06:02:43;;;;;;;5.82;3.45;;;;;;;;;;6214376;28;20054;-75
2023/06/26 06:05:45;;;;;;;7.50;3.80;;;;;;;;;;6216230;28;20294;-75
2023/06/26 06:08:46;;;;;;;6.32;3.83;;;;;;;;;;6213213;28;20053;-76
2023/06/26 06:11:48;;;;;;;8.82;3.58;;;;;;;;;;6215595;28;20062;-75
2023/06/26 06:14:52;;;;;;;9.82;3.55;;;;;;;;;;6216666;28;20058;-77
2023/06/26 06:17:54;;;;;;;9.35;4.15;;;;;;;;;;6215076;28;20058;-77
2023/06/26 06:20:55;;;;;;;8.00;4.15;;;;;;;;;;6216188;28;20367;-77
2023/06/26 06:23:57;;;;;;;7.60;3.88;;;;;;;;;;6217966;28;20061;-77
2023/06/26 06:26:59;;;;;;;7.88;4.00;;;;;;;;;;6215170;28;20050;-81
2023/06/26 06:30:02;;;;;;;9.13;3.80;;;;;;;;;;6214580;28;20099;-80
2023/06/26 06:33:04;;;;;;;13.77;4.03;;;;;;;;;;6213143;28;20045;-77
2023/06/26 06:36:06;;;;;;;6.18;3.80;;;;;;;;;;6215026;28;20053;-76
2023/06/26 06:39:07;;;;;;;8.23;3.80;;;;;;;;;;6216996;28;20254;-77
2023/06/26 06:42:09;;;;;;;7.03;3.45;;;;;;;;;;6214840;28;20054;-78
2023/06/26 06:45:13;;;;;;;7.63;4.05;;;;;;;;;;6216004;28;20060;-79
2023/06/26 06:48:14;;;;;;;;;;;;;;;;;;6217681;28;20277;-75
2023/06/26 06:51:16;;;;;;;5.80;3.85;;;;;;;;;;6220268;28;19932;-77
2023/06/26 06:54:17;;;;;;;4.13;3.53;;;;;;;;;;6222258;28;20050;-76
2023/06/26 06:57:19;;;;;;;7.28;3.55;;;;;;;;;;6222582;28;20356;-76
2023/06/26 07:00:22;;;;;;;7.03;3.95;;;;;;;;;;6221250;28;20057;-80
2023/06/26 07:03:24;;;;;;;5.82;3.63;;;;;;;;;;6221263;28;20057;-81
2023/06/26 07:06:26;;;;;;;8.38;3.83;;;;;;;;;;6217854;28;20364;-81
2023/06/26 07:09:27;;;;;;;10.05;3.60;;;;;;;;;;6218751;28;20054;-81
2023/06/26 07:12:29;;;;;;;9.43;4.03;;;;;;;;;;6220820;28;20068;-80
2023/06/26 07:15:32;;;;;;;7.72;3.78;;;;;;;;;;6219959;28;20128;-78
2023/06/26 07:18:34;;;;;;;;;;;;;;;;;;6221858;28;20066;-79
2023/06/26 07:21:35;;;;;;;5.57;3.33;;;;;;;;;;6219100;28;19925;-80
2023/06/26 07:24:40;;;;;;;10.80;3.78;;;;;;;;;;6219554;28;20058;-79
2023/06/26 07:27:42;;;;;;;7.07;3.67;;;;;;;;;;6214836;28;20057;-80
2023/06/26 07:30:46;;;;;;;6.65;3.63;;;;;;;;;;6217232;28;20115;-79
2023/06/26 07:33:47;;;;;;;5.22;3.75;;;;;;;;;;6217166;28;20041;-80
2023/06/26 07:36:49;;;;;;;5.22;4.10;;;;;;;;;;6224666;28;20064;-80
2023/06/26 07:39:51;;;;;;;7.88;4.78;;;;;;;;;;6219260;28;20274;-80
2023/06/26 07:42:53;;;;;;;7.47;4.00;;;;;;;;;;6219345;28;20133;-80
2023/06/26 07:45:58;;;;;;;8.50;4.05;;;;;;;;;;6218402;28;20050;-85
2023/06/26 07:49:00;;;;;;;5.32;3.85;;;;;;;;;;6215363;28;20057;-84
2023/06/26 07:52:01;;;;;;;7.68;4.80;;;;;;;;;;6218275;28;20058;-84
2023/06/26 07:55:04;;;;;;;4.18;3.35;;;;;;;;;;6220970;28;20053;-84
2023/06/26 07:58:05;;;;;;;6.53;4.13;;;;;;;;;;6216780;28;20050;-84
2023/06/26 08:01:09;;;;;;;12.27;3.67;;;;;;;;;;6215165;28;20054;-85
2023/06/26 08:04:11;;;;;;;7.15;4.07;;;;;;;;;;6218556;28;20057;-87
2023/06/26 08:07:13;;;;;;;7.35;3.60;;;;;;;;;;6215076;28;20058;-84
2023/06/26 08:10:15;;;;;;;5.18;4.05;;;;;;;;;;6217884;28;21240;-84
2023/06/26 08:13:17;;;;;;;8.93;3.85;;;;;;;;;;6217740;28;20062;-86
2023/06/26 08:16:20;;;;;;;14.43;4.17;;;;;;;;;;6220488;28;20046;-85
2023/06/26 08:19:22;;;;;;;5.95;3.55;;;;;;;;;;6217249;28;20662;-85
2023/06/26 08:22:24;;;;;;;5.27;3.27;;;;;;;;;;6219394;28;20061;-84
2023/06/26 08:25:26;;;;;;;6.50;3.42;;;;;;;;;;6216385;28;20246;-84
2023/06/26 08:28:28;;;;;;;4.70;3.33;;;;;;;;;;6216657;28;20057;-84
2023/06/26 08:31:34;;;;;;;3.93;3.50;;;;;;;;;;6219456;28;20242;-84
2023/06/26 08:34:35;;;;;;;5.93;3.90;;;;;;;;;;6218711;28;20465;-84
2023/06/26 08:37:37;;;;;;;6.65;3.78;;;;;;;;;;6216274;28;20065;-85
2023/06/26 08:40:39;;;;;;;6.00;3.58;;;;;;;;;;6217334;28;20046;-84
2023/06/26 08:43:41;;;;;;;5.68;3.55;;;;;;;;;;6219843;28;20062;-83
2023/06/26 08:46:45;;;;;;;5.22;3.67;;;;;;;;;;6218793;28;20104;-84
2023/06/26 08:49:49;;;;;;;7.18;4.10;;;;;;;;;;6219032;28;20045;-85
2023/06/26 08:52:56;;;;;;;5.75;3.58;;;;;;;;;;6216840;28;20050;-84
2023/06/26 08:56:00;;;;;;;14.73;3.90;;;;;;;;;;6216985;28;20109;-86
2023/06/26 08:59:02;;;;;;;6.10;4.53;;;;;;;;;;6216501;28;20273;-84
2023/06/26 09:02:05;;;;;;;6.03;4.53;;;;;;;;;;6217023;28;20087;-85
2023/06/26 09:05:08;;;;;;;8.63;3.80;;;;;;;;;;6219579;28;20050;-87
2023/06/26 09:08:10;;;;;;;8.77;4.32;;;;;;;;;;6215168;28;20064;-86
2023/06/26 09:11:12;;;;;;;6.80;4.47;;;;;;;;;;6214115;28;20081;-81
2023/06/26 09:14:14;;;;;;;5.72;4.50;;;;;;;;;;6217691;28;20048;-85
2023/06/26 09:17:18;;;;;;;9.77;4.63;;;;;;;;;;6217313;28;20336;-86
2023/06/26 09:20:19;;;;;;;8.63;4.18;;;;;;;;;;6212567;28;20050;-86
2023/06/26 09:23:23;;;;;;;6.03;4.22;;;;;;;;;;6216223;28;20057;-85
2023/06/26 09:26:24;;;;;;;8.80;5.05;;;;;;;;;;6219309;28;20210;-85
2023/06/26 09:29:28;;;;;;;8.50;4.55;;;;;;;;;;6208159;28;20073;-86
2023/06/26 09:32:31;;;;;;;8.82;4.93;;;;;;;;;;6215796;28;20061;-89
2023/06/26 09:35:33;;;;;;;8.75;4.90;;;;;;;;;;6217383;28;20061;-90
2023/06/26 09:38:35;;;;;;;6.63;3.88;;;;;;;;;;6215696;28;20053;-84
2023/06/26 09:41:37;;;;;;;15.45;4.93;;;;;;;;;;6216778;28;20054;-87
2023/06/26 09:44:44;;;;;;;;;;;;;;;;;;6217929;28;20053;-87
2023/06/26 09:47:47;;;;;;;10.45;4.93;;;;;;;;;;6198691;28;19956;-89
2023/06/26 09:50:49;;;;;;;7.32;4.72;;;;;;;;;;6215200;28;20247;-88
2023/06/26 09:53:51;;;;;;;7.65;4.45;;;;;;;;;;6215303;28;20054;-87
2023/06/26 09:56:52;;;;;;;11.70;4.90;;;;;;;;;;6219499;28;20112;-88
2023/06/26 09:59:54;;;;;;;6.68;4.50;;;;;;;;;;6217481;28;20050;-87
2023/06/26 10:02:57;;;;;;;6.07;4.60;;;;;;;;;;6214236;28;20054;-86
2023/06/26 10:06:01;;;;;;;6.47;4.30;;;;;;;;;;6216028;28;20062;-88
2023/06/26 10:09:04;;;;;;;5.68;4.40;;;;;;;;;;6197357;28;20542;-90
2023/06/26 10:12:09;;;;;;;11.27;3.92;;;;;;;;;;6219418;28;20342;-90
2023/06/26 10:15:13;;;;;;;9.32;4.93;;;;;;;;;;6215734;28;20062;-81
2023/06/26 10:18:18;;;;;;;6.82;4.20;;;;;;;;;;6217982;28;20054;-85
2023/06/26 10:21:21;;;;;;;7.07;4.30;;;;;;;;;;6215741;28;20058;-92
2023/06/26 10:24:24;;;;;;;7.30;4.85;;;;;;;;;;6221489;28;20078;-86
2023/06/26 10:27:29;;;;;;;5.85;5.25;;;;;;;;;;6220002;28;20046;-90
2023/06/26 10:30:34;;;;;;;8.48;4.15;;;;;;;;;;6222819;28;20058;-89
2023/06/26 10:33:37;;;;;;;6.10;4.53;;;;;;;;;;6219134;28;20046;-88
2023/06/26 10:36:39;;;;;;;6.50;5.13;;;;;;;;;;6221254;28;20360;-91
2023/06/26 10:39:49;;;;;;;7.35;4.53;;;;;;;;;;6220920;28;20065;-90
2023/06/26 10:42:51;;;;;;;7.60;5.32;;;;;;;;;;6219893;28;20117;-90
2023/06/26 10:45:55;;;;;;;5.90;4.28;;;;;;;;;;6222296;28;20336;-85
2023/06/26 10:49:04;;;;;;;9.07;4.75;;;;;;;;;;6219974;28;20388;-96
2023/06/26 10:52:08;;;;;;;5.68;4.93;;;;;;;;;;6221628;28;20058;-93
2023/06/26 10:55:10;;;;;;;8.27;5.03;;;;;;;;;;6190889;28;20057;-90
2023/06/26 10:58:34;;;;;;;6.50;5.25;;;;;;;;;;6220592;28;20061;-92
2023/06/26 11:01:42;;;;;;;6.28;5.63;;;;;;;;;;6211420;28;20066;-92
2023/06/26 11:04:51;;;;;;;6.03;4.47;;;;;;;;;;6205340;28;20080;-91
2023/06/26 11:08:12;;;;;;;9.18;5.43;;;;;;;;;;6218341;28;20049;-90
2023/06/26 11:11:14;;;;;;;7.47;4.60;;;;;;;;;;6217939;28;20045;-79
2023/06/26 11:14:17;;;;;;;8.95;5.85;;;;;;;;;;6221843;28;20050;-88
2023/06/26 11:17:19;;;;;;;6.13;4.68;;;;;;;;;;6217895;28;20049;-86
2023/06/26 11:20:23;;;;;;;6.03;5.45;;;;;;;;;;6218561;28;20050;-86
2023/06/26 11:23:26;;;;;;;9.32;5.75;;;;;;;;;;6219210;28;20270;-82
2023/06/26 11:26:28;;;;;;;5.88;5.10;;;;;;;;;;6219507;28;20122;-84
2023/06/26 11:29:29;;;;;;;;;;;;;;;;;;6223883;28;20052;-85
2023/06/26 11:32:32;;;;;;;7.43;4.75;;;;;;;;;;6225894;28;20138;-86
2023/06/26 11:35:35;;;;;;;9.10;4.88;;;;;;;;;;6221724;28;20069;-81
2023/06/26 11:38:38;;;;;;;5.75;4.63;;;;;;;;;;6227886;28;20096;-83
2023/06/26 11:41:41;;;;;;;6.82;5.45;;;;;;;;;;6222896;28;20338;-83
2023/06/26 11:44:43;;;;;;;5.82;4.93;;;;;;;;;;6226566;28;20045;-84
2023/06/26 11:47:45;;;;;;;11.57;5.05;;;;;;;;;;6221074;28;20066;-83
2023/06/26 11:50:51;;;;;;;6.63;5.30;;;;;;;;;;6225017;28;20293;-83
2023/06/26 11:53:53;;;;;;;11.45;5.32;;;;;;;;;;6226230;28;20131;-83
2023/06/26 11:56:57;;;;;;;6.03;4.63;;;;;;;;;;6220642;28;20050;-86
2023/06/26 11:59:59;;;;;;;8.40;4.95;;;;;;;;;;6227500;28;20054;-84
2023/06/26 12:03:03;;;;;;;5.90;4.32;;;;;;;;;;6221472;28;20054;-84
2023/06/26 12:06:06;;;;;;;6.47;4.40;;;;;;;;;;6224553;28;20054;-88
2023/06/26 12:09:10;;;;;;;6.28;4.10;;;;;;;;;;6222219;28;20285;-79
2023/06/26 12:12:13;;;;;;;7.15;4.80;;;;;;;;;;6222323;28;20106;-79
2023/06/26 12:15:16;;;;;;;6.13;4.18;;;;;;;;;;6224890;28;20046;-79
2023/06/26 12:18:18;;;;;;;5.53;4.18;;;;;;;;;;6222507;28;20057;-79
2023/06/26 12:21:53;;;;;;;5.80;4.22;;;;;;;;;;6219595;28;20058;-79
2023/06/26 12:24:57;;;;;;;7.63;4.25;;;;;;;;;;6225041;28;20049;-81
2023/06/26 12:27:59;;;;;;;9.30;4.47;;;;;;;;;;6219765;28;20053;-79
2023/06/26 12:31:14;;;;;;;;;;;;;;;;;;6219593;28;20057;-80
2023/06/26 12:34:19;;;;;;;6.28;4.80;;;;;;;;;;6224951;28;20281;-79
2023/06/26 12:37:22;;;;;;;8.18;4.88;;;;;;;;;;6218355;28;20045;-78
2023/06/26 12:40:25;;;;;;;10.05;4.65;;;;;;;;;;6222532;28;20053;-79
2023/06/26 12:43:27;;;;;;;9.82;4.65;;;;;;;;;;6223444;28;20050;-79
2023/06/26 12:46:36;;;;;;;5.82;4.00;;;;;;;;;;6211215;28;20061;-80
2023/06/26 12:49:38;;;;;;;9.38;4.10;;;;;;;;;;6222343;28;20077;-78
2023/06/26 12:52:41;;;;;;;4.53;3.92;;;;;;;;;;6220772;28;20046;-79
2023/06/26 12:55:43;;;;;;;4.85;4.45;;;;;;;;;;6216071;28;20293;-79
2023/06/26 12:58:45;;;;;;;5.22;4.50;;;;;;;;;;6216850;28;20062;-79
2023/06/26 13:01:47;;;;;;;8.35;4.65;;;;;;;;;;6218213;28;20054;-80
2023/06/26 13:04:49;;;;;;;8.50;4.63;;;;;;;;;;6218880;28;20076;-81
2023/06/26 13:07:53;;;;;;;6.65;4.32;;;;;;;;;;6217810;28;20048;-81
2023/06/26 13:10:55;;;;;;;5.63;4.47;;;;;;;;;;6221022;28;20050;-79
2023/06/26 13:13:56;;;;;;;6.82;3.90;;;;;;;;;;6216648;28;20054;-81
2023/06/26 13:16:58;;;;;;;5.55;4.07;;;;;;;;;;6217860;28;20281;-79
2023/06/26 13:20:00;;;;;;;5.95;4.07;;;;;;;;;;6216459;28;20061;-80
2023/06/26 13:23:03;;;;;;;6.13;4.50;;;;;;;;;;6214955;28;20065;-79
2023/06/26 13:26:06;;;;;;;6.45;4.55;;;;;;;;;;6215687;28;20134;-81
2023/06/26 13:29:08;;;;;;;5.85;4.32;;;;;;;;;;6216794;28;20060;-81
2023/06/26 13:32:10;;;;;;;5.90;4.53;;;;;;;;;;6216719;28;20303;-80
2023/06/26 13:35:11;;;;;;;8.50;4.03;;;;;;;;;;6218128;28;20227;-81
2023/06/26 13:38:15;;;;;;;6.75;4.35;;;;;;;;;;6218251;28;20057;-79
2023/06/26 13:41:19;;;;;;;6.28;4.97;;;;;;;;;;6217312;28;20121;-79
2023/06/26 13:44:21;;;;;;;6.43;4.68;;;;;;;;;;6220389;28;20053;-79
2023/06/26 13:47:22;;;;;;;8.88;4.75;;;;;;;;;;6216600;28;20401;-80
2023/06/26 13:50:24;;;;;;;6.57;4.70;;;;;;;;;;6216780;28;21055;-80
2023/06/26 13:53:27;;;;;;;5.78;4.68;;;;;;;;;;6217571;28;20057;-79
2023/06/26 13:56:30;;;;;;;5.25;4.18;;;;;;;;;;6216459;28;20651;-80
2023/06/26 13:59:32;;;;;;;5.22;4.15;;;;;;;;;;6223348;28;20054;-80
2023/06/26 14:02:33;;;;;;;7.22;4.72;;;;;;;;;;6223762;28;20070;-79
2023/06/26 14:05:35;;;;;;;4.97;4.47;;;;;;;;;;6222404;28;20264;-80
2023/06/26 14:08:38;;;;;;;9.18;3.90;;;;;;;;;;6221313;28;20052;-80
2023/06/26 14:11:40;;;;;;;4.85;4.20;;;;;;;;;;6222169;28;20056;-79
2023/06/26 14:14:42;;;;;;;5.93;4.00;;;;;;;;;;6224632;28;20108;-78
2023/06/26 14:17:43;;;;;;;5.53;4.28;;;;;;;;;;6220652;28;20073;-81
2023/06/26 14:20:45;;;;;;;7.28;4.32;;;;;;;;;;6222929;28;20054;-80
2023/06/26 14:23:48;;;;;;;6.18;4.20;;;;;;;;;;6223787;28;20057;-79
2023/06/26 14:26:50;;;;;;;6.18;4.20;;;;;;;;;;6220480;28;20050;-80
2023/06/26 14:29:51;;;;;;;7.72;5.05;;;;;;;;;;6221627;28;20049;-79
2023/06/26 14:32:53;;;;;;;7.38;4.50;;;;;;;;;;6222021;28;20081;-77
2023/06/26 14:35:55;;;;;;;7.13;4.63;;;;;;;;;;6220914;28;20705;-78
2023/06/26 14:38:59;;;;;;;6.57;4.00;;;;;;;;;;6223261;28;20092;-79
2023/06/26 14:42:00;;;;;;;7.28;4.53;;;;;;;;;;6219600;28;20100;-79
2023/06/26 14:45:03;;;;;;;8.15;4.97;;;;;;;;;;6223005;28;20062;-78
2023/06/26 14:48:05;;;;;;;6.38;4.93;;;;;;;;;;6222064;28;20360;-77
2023/06/26 14:51:06;;;;;;;6.60;4.70;;;;;;;;;;6219875;28;20058;-79
2023/06/26 14:54:10;;;;;;;5.85;4.55;;;;;;;;;;6223868;28;20057;-79
2023/06/26 14:57:11;;;;;;;10.32;4.90;;;;;;;;;;6224025;28;20274;-79
2023/06/26 15:00:14;;;;;;;4.95;4.47;;;;;;;;;;6219334;28;20058;-79
2023/06/26 15:03:16;;;;;;;7.50;4.40;;;;;;;;;;6222763;28;20050;-80
2023/06/26 15:06:17;;;;;;;6.65;4.60;;;;;;;;;;6218661;28;20257;-79
2023/06/26 15:09:23;;;;;;;6.60;4.53;;;;;;;;;;6220596;28;20512;-79
2023/06/26 15:12:25;;;;;;;6.68;4.43;;;;;;;;;;6216750;28;20054;-78
2023/06/26 15:15:27;;;;;;;7.10;4.93;;;;;;;;;;6223087;28;20049;-78
2023/06/26 15:18:28;;;;;;;6.40;4.70;;;;;;;;;;6220865;28;20053;-77
2023/06/26 15:21:30;;;;;;;7.15;4.53;;;;;;;;;;6219095;28;20084;-78
2023/06/26 15:24:33;;;;;;;6.25;4.00;;;;;;;;;;6219143;28;20058;-79
2023/06/26 15:27:35;;;;;;;8.00;5.15;;;;;;;;;;6220615;28;20056;-76
2023/06/26 15:30:36;;;;;;;10.95;4.30;;;;;;;;;;6217829;28;20065;-79
2023/06/26 15:33:38;;;;;;;5.33;4.10;;;;;;;;;;6219178;28;20068;-80
2023/06/26 15:36:40;;;;;;;6.43;4.63;;;;;;;;;;6216678;28;20550;-77
2023/06/26 15:39:43;;;;;;;5.47;4.22;;;;;;;;;;6216176;28;20449;-77
2023/06/26 15:42:48;;;;;;;6.82;4.90;;;;;;;;;;6219827;28;20250;-77
2023/06/26 15:45:50;;;;;;;5.05;4.40;;;;;;;;;;6219121;28;20050;-77
2023/06/26 15:48:52;;;;;;;6.13;4.60;;;;;;;;;;6216697;28;20054;-77
2023/06/26 15:51:53;;;;;;;5.47;3.97;;;;;;;;;;6218002;28;20483;-78
2023/06/26 15:54:56;;;;;;;6.27;3.90;;;;;;;;;;6220856;28;20077;-77
2023/06/26 15:57:59;;;;;;;5.47;4.05;;;;;;;;;;6217590;28;20058;-79
2023/06/26 16:01:01;;;;;;;4.80;4.30;;;;;;;;;;6217913;28;20121;-78
2023/06/26 16:04:03;;;;;;;5.85;4.60;;;;;;;;;;6219488;28;20064;-77
2023/06/26 16:07:05;;;;;;;7.65;4.82;;;;;;;;;;6217353;28;20100;-78
2023/06/26 16:10:10;;;;;;;4.95;4.43;;;;;;;;;;6218331;28;21100;-78
2023/06/26 16:13:11;;;;;;;5.43;4.53;;;;;;;;;;6219397;28;20096;-77
2023/06/26 16:16:14;;;;;;;6.40;4.70;;;;;;;;;;6215122;28;20222;-76
2023/06/26 16:19:16;;;;;;;6.90;4.30;;;;;;;;;;6216808;28;20531;-78
2023/06/26 16:22:17;;;;;;;5.15;4.30;;;;;;;;;;6215845;28;20053;-76
2023/06/26 16:25:21;;;;;;;6.47;4.63;;;;;;;;;;6217541;28;20300;-76
2023/06/26 16:28:22;;;;;;;5.63;4.60;;;;;;;;;;6216540;28;20140;-78
2023/06/26 16:31:24;;;;;;;6.60;4.60;;;;;;;;;;6216908;28;20246;-78
2023/06/26 16:34:26;;;;;;;6.80;4.80;;;;;;;;;;6217772;28;20054;-78
2023/06/26 16:37:28;;;;;;;5.35;4.45;;;;;;;;;;6217418;28;20449;-75
2023/06/26 16:40:31;;;;;;;9.33;5.07;;;;;;;;;;6218673;28;20065;-78
2023/06/26 16:43:40;;;;;;;7.38;4.80;;;;;;;;;;6286456;27;20802;-81
2023/06/26 16:46:42;;;;;;;5.53;5.03;;;;;;;;;;6265354;28;20054;-79
2023/06/26 16:49:43;;;;;;;6.32;4.60;;;;;;;;;;6267132;28;20338;-77
2023/06/26 16:52:45;;;;;;;5.57;4.97;;;;;;;;;;6268165;28;20059;-75
2023/06/26 16:55:48;;;;;;;6.60;4.82;;;;;;;;;;6264875;28;20242;-78
2023/06/26 16:58:50;;;;;;;8.35;4.97;;;;;;;;;;6250921;28;20061;-76
2023/06/26 17:01:53;;;;;;;6.70;4.95;;;;;;;;;;6248493;28;20199;-79
2023/06/26 17:04:56;;;;;;;5.93;5.05;;;;;;;;;;6263432;28;20050;-79
2023/06/26 17:07:58;;;;;;;17.25;5.78;;;;;;;;;;6265761;28;20057;-77
2023/06/26 17:10:59;;;;;;;10.48;4.90;;;;;;;;;;6266936;28;20337;-76
2023/06/26 17:14:02;;;;;;;8.23;5.00;;;;;;;;;;6269342;28;20056;-77
2023/06/26 17:17:04;;;;;;;5.32;4.60;;;;;;;;;;6263707;28;20057;-80
2023/06/26 17:20:07;;;;;;;6.88;5.50;;;;;;;;;;6263913;28;20049;-77
2023/06/26 17:23:08;;;;;;;7.53;5.55;;;;;;;;;;6261269;28;20055;-78
2023/06/26 17:26:10;;;;;;;5.93;5.32;;;;;;;;;;6264134;28;20049;-79
2023/06/26 17:29:13;;;;;;;9.03;5.17;;;;;;;;;;6260893;28;20104;-79
2023/06/26 17:32:15;;;;;;;7.25;4.93;;;;;;;;;;6266192;28;20049;-79
2023/06/26 17:35:16;;;;;;;7.20;5.13;;;;;;;;;;6263538;28;20052;-78
2023/06/26 17:38:17;;;;;;;5.85;4.38;;;;;;;;;;6263099;28;20063;-77
2023/06/26 17:41:19;;;;;;;53.58;39.80;;;;;;;;;;6261494;28;20071;-76
2023/06/26 17:44:27;;;;;;;8.68;6.43;;;;;;;;;;6267707;28;20123;-76
2023/06/26 17:47:28;;;;;;;16.20;11.73;;;;;;;;;;6266504;28;20131;-76
2023/06/26 17:50:29;;;;;;;7.80;6.13;;;;;;;;;;6265370;28;20076;-76
2023/06/26 17:53:31;;;;;;;15.13;10.93;;;;;;;;;;6254888;28;20080;-75
2023/06/26 17:56:32;;;;;;;9.98;6.18;;;;;;;;;;6251666;28;20073;-74
2023/06/26 17:59:36;;;;;;;5.93;4.32;;;;;;;;;;6247032;28;20344;-75
2023/06/26 18:02:38;;;;;;;5.75;4.45;;;;;;;;;;6248208;28;20065;-76
2023/06/26 18:05:39;;;;;;;;;;;;;;;;;;6250125;28;20121;-76
2023/06/26 18:08:41;;;;;;;6.15;4.30;;;;;;;;;;6249828;28;20197;-76
2023/06/26 18:11:43;;;;;;;6.57;3.95;;;;;;;;;;6245747;28;20053;-76
2023/06/26 18:14:45;;;;;;;8.77;4.10;;;;;;;;;;6246565;28;20046;-76
2023/06/26 18:17:47;;;;;;;4.63;4.20;;;;;;;;;;6245063;28;20041;-76